Aplington, Iowa
Current Conditions -  °F | °C
As of 8:15 AM on Friday 31 Oct 2014 (Local Time) from KIFA Reporting Station
Clear Clear  
Wind Chill: 14°   Ceiling: Unl
Heat Index: 26°   Visibility: 10mi
Dew Point: 19°   Wind: 15mph
Humidity: 72%   Direction: 340°NNW
Pressure: 30.45"   Gusts: NA
Location:  42.58°N, 92.88°W
Report Text: KIFA 311315Z AUTO 34013KT 10SM CLR M03/M07 A3045 RMK AO2 T10311075
Loading
Personal Weather Stations






























Interactive Weather Map
Tropical Storm Tracking
New forecast layout! Learn more

10-Day Weather Forecast

Advertisements
Track Severe Weather on mobile